Time;durP1;ratioP1;P1;durP2;ratioP2;P2;SDS_P1;SDS_P2;PMS_P1;PMS_P2;Temp;Humidity;BMP_temperature;BMP_pressure;BME280_temperature;BME280_humidity;BME280_pressure;Samples;Min_cycle;Max_cycle;Signal;HPM_P1;HPM_P2
2022/08/03 00:00:00;;;;;;;16.63;9.05;;;;;;;;;;5008676;28;20022;-78
2022/08/03 00:02:26;;;;;;;17.83;8.82;;;;;;;;;;5008886;28;20100;-79
2022/08/03 00:04:52;;;;;;;10.30;5.55;;;;;;;;;;5008745;28;20130;-79
2022/08/03 00:07:17;;;;;;;11.63;4.88;;;;;;;;;;5007476;28;20113;-79
2022/08/03 00:09:42;;;;;;;10.10;4.85;;;;;;;;;;5008713;28;20581;-79
2022/08/03 00:12:08;;;;;;;9.68;4.25;;;;;;;;;;5008702;28;20098;-79
2022/08/03 00:14:33;;;;;;;7.88;4.05;;;;;;;;;;5008615;28;20022;-78
2022/08/03 00:16:59;;;;;;;12.95;3.60;;;;;;;;;;5008489;28;20060;-79
2022/08/03 00:19:25;;;;;;;5.63;2.90;;;;;;;;;;5008282;28;20033;-78
2022/08/03 00:21:50;;;;;;;5.47;2.38;;;;;;;;;;5008365;28;20099;-78
2022/08/03 00:24:15;;;;;;;8.20;2.20;;;;;;;;;;5008640;28;20037;-76
2022/08/03 00:26:41;;;;;;;4.20;1.80;;;;;;;;;;5008461;28;20450;-77
2022/08/03 00:29:06;;;;;;;5.13;1.80;;;;;;;;;;5008536;28;20531;-76
2022/08/03 00:31:32;;;;;;;3.35;1.70;;;;;;;;;;5008535;28;20496;-78
2022/08/03 00:33:57;;;;;;;4.20;1.60;;;;;;;;;;5008230;28;20108;-76
2022/08/03 00:36:23;;;;;;;3.28;1.50;;;;;;;;;;5008284;28;20042;-77
2022/08/03 00:38:48;;;;;;;3.90;1.58;;;;;;;;;;5008222;28;20473;-76
2022/08/03 00:41:13;;;;;;;3.90;1.48;;;;;;;;;;5008048;28;20030;-77
2022/08/03 00:43:39;;;;;;;2.83;1.30;;;;;;;;;;5008157;28;20060;-77
2022/08/03 00:46:04;;;;;;;4.25;1.50;;;;;;;;;;5008325;28;20022;-78
2022/08/03 00:48:30;;;;;;;3.80;1.42;;;;;;;;;;5008122;28;20018;-78
2022/08/03 00:50:55;;;;;;;3.40;1.50;;;;;;;;;;5008004;28;20092;-77
2022/08/03 00:53:21;;;;;;;3.63;1.50;;;;;;;;;;5007860;28;20248;-76
2022/08/03 00:55:46;;;;;;;3.42;1.30;;;;;;;;;;5007983;28;20040;-78
2022/08/03 00:58:12;;;;;;;4.03;1.35;;;;;;;;;;5008054;28;20026;-76
2022/08/03 01:00:39;;;;;;;1.60;1.15;;;;;;;;;;5006576;28;20036;-76
2022/08/03 01:03:05;;;;;;;3.67;1.20;;;;;;;;;;5007929;28;20409;-77
2022/08/03 01:05:55;;;;;;;2.35;1.40;;;;;;;;;;5007885;28;20038;-76
2022/08/03 01:08:33;;;;;;;8.82;1.20;;;;;;;;;;5027456;28;20041;-77
2022/08/03 01:11:25;;;;;;;2.58;1.48;;;;;;;;;;5007565;28;20037;-77
2022/08/03 01:14:25;;;;;;;4.40;1.40;;;;;;;;;;5009301;28;20125;-78
2022/08/03 01:17:03;;;;;;;3.70;1.42;;;;;;;;;;5042557;28;20037;-76
2022/08/03 01:19:38;;;;;;;5.35;1.50;;;;;;;;;;5007622;28;20018;-76
2022/08/03 01:22:26;;;;;;;2.50;1.50;;;;;;;;;;5007473;28;20026;-76
2022/08/03 01:25:20;;;;;;;4.03;1.50;;;;;;;;;;5007669;28;20030;-75
2022/08/03 01:27:57;;;;;;;4.15;1.50;;;;;;;;;;5021698;28;20037;-75
2022/08/03 01:30:31;;;;;;;3.67;1.50;;;;;;;;;;5007317;28;20030;-76
2022/08/03 01:33:02;;;;;;;2.88;1.40;;;;;;;;;;5007513;28;20030;-76
2022/08/03 01:35:52;;;;;;;4.63;1.60;;;;;;;;;;5007572;28;20048;-77
2022/08/03 01:38:23;;;;;;;2.88;1.40;;;;;;;;;;5007470;28;20037;-79
2022/08/03 01:40:52;;;;;;;4.13;1.45;;;;;;;;;;5007283;28;20045;-78
2022/08/03 01:43:20;;;;;;;3.65;1.27;;;;;;;;;;5007257;28;20094;-78
2022/08/03 01:45:47;;;;;;;2.63;1.27;;;;;;;;;;5007306;28;20015;-78
2022/08/03 01:48:16;;;;;;;2.90;1.38;;;;;;;;;;5007365;28;20405;-78
2022/08/03 01:50:43;;;;;;;4.35;1.30;;;;;;;;;;5007316;28;20610;-76
2022/08/03 01:53:13;;;;;;;4.50;1.45;;;;;;;;;;5007441;28;20058;-77
2022/08/03 01:55:39;;;;;;;1.77;1.13;;;;;;;;;;5010864;28;20038;-76
2022/08/03 01:58:07;;;;;;;3.33;1.15;;;;;;;;;;5010936;28;20033;-76
2022/08/03 02:00:36;;;;;;;3.75;1.42;;;;;;;;;;5009227;28;20025;-76
2022/08/03 02:03:04;;;;;;;1.92;1.20;;;;;;;;;;5010449;28;20030;-76
2022/08/03 02:05:31;;;;;;;3.75;1.40;;;;;;;;;;5010600;28;20531;-76
2022/08/03 02:07:58;;;;;;;2.97;1.60;;;;;;;;;;5010610;28;20026;-76
2022/08/03 02:10:26;;;;;;;2.75;1.30;;;;;;;;;;5010463;28;20029;-76
2022/08/03 02:12:53;;;;;;;4.25;1.40;;;;;;;;;;5010543;28;20033;-76
2022/08/03 02:15:20;;;;;;;3.80;1.50;;;;;;;;;;5010629;28;20030;-76
2022/08/03 02:17:48;;;;;;;3.10;1.38;;;;;;;;;;5010419;28;20022;-75
2022/08/03 02:20:14;;;;;;;3.78;1.50;;;;;;;;;;5010194;28;20082;-76
2022/08/03 02:22:41;;;;;;;2.80;1.42;;;;;;;;;;5010283;28;20124;-76
2022/08/03 02:25:09;;;;;;;2.97;1.40;;;;;;;;;;5010242;28;20671;-78
2022/08/03 02:27:37;;;;;;;2.78;1.30;;;;;;;;;;5010400;28;20030;-77
2022/08/03 02:30:06;;;;;;;2.25;1.33;;;;;;;;;;5010220;28;20046;-75
2022/08/03 02:32:34;;;;;;;5.00;1.30;;;;;;;;;;5010318;28;20026;-75
2022/08/03 02:35:02;;;;;;;3.70;1.40;;;;;;;;;;5010029;28;20034;-76
2022/08/03 02:37:31;;;;;;;3.72;1.10;;;;;;;;;;5010117;28;20034;-75
2022/08/03 02:40:01;;;;;;;3.28;1.50;;;;;;;;;;5009958;28;20030;-76
2022/08/03 02:42:29;;;;;;;3.78;1.40;;;;;;;;;;5008703;28;20094;-76
2022/08/03 02:44:59;;;;;;;2.63;1.50;;;;;;;;;;5010182;28;20038;-75
2022/08/03 02:47:26;;;;;;;3.92;1.30;;;;;;;;;;5010075;28;20509;-76
2022/08/03 02:49:54;;;;;;;3.00;1.35;;;;;;;;;;5009994;28;20112;-76
2022/08/03 02:52:22;;;;;;;4.25;1.33;;;;;;;;;;5009855;28;20033;-76
2022/08/03 02:54:52;;;;;;;2.55;1.48;;;;;;;;;;5009908;28;20512;-76
2022/08/03 02:57:20;;;;;;;5.20;1.30;;;;;;;;;;5009623;28;20042;-75
2022/08/03 02:59:46;;;;;;;1.85;1.17;;;;;;;;;;5009622;28;20715;-76
2022/08/03 03:02:14;;;;;;;4.68;1.23;;;;;;;;;;5009883;28;20034;-77
2022/08/03 03:04:41;;;;;;;2.63;1.40;;;;;;;;;;5009218;28;20130;-76
2022/08/03 03:07:08;;;;;;;2.20;1.30;;;;;;;;;;5008244;28;20675;-75
2022/08/03 03:09:33;;;;;;;2.17;1.30;;;;;;;;;;5009533;28;20159;-76
2022/08/03 03:11:59;;;;;;;4.55;1.30;;;;;;;;;;5009568;28;20060;-74
2022/08/03 03:14:25;;;;;;;1.70;1.00;;;;;;;;;;5009462;28;20101;-77
2022/08/03 03:16:51;;;;;;;3.72;0.90;;;;;;;;;;5009517;28;20438;-76
2022/08/03 03:19:18;;;;;;;3.88;1.40;;;;;;;;;;5009631;28;20030;-77
2022/08/03 03:21:45;;;;;;;3.78;1.40;;;;;;;;;;5009184;28;20070;-77
2022/08/03 03:24:11;;;;;;;5.15;1.40;;;;;;;;;;5009590;28;20101;-76
2022/08/03 03:26:37;;;;;;;2.63;1.13;;;;;;;;;;5009522;28;20175;-77
2022/08/03 03:29:03;;;;;;;2.17;1.27;;;;;;;;;;5009294;28;20030;-79
2022/08/03 03:31:28;;;;;;;3.80;1.30;;;;;;;;;;5008970;28;20033;-77
2022/08/03 03:33:56;;;;;;;3.15;1.30;;;;;;;;;;5009455;28;20148;-78
2022/08/03 03:36:22;;;;;;;2.25;1.33;;;;;;;;;;5009043;28;20112;-78
2022/08/03 03:38:47;;;;;;;4.03;1.42;;;;;;;;;;5009309;28;20178;-77
2022/08/03 03:41:13;;;;;;;4.70;1.45;;;;;;;;;;5009164;28;20025;-77
2022/08/03 03:43:38;;;;;;;5.10;1.33;;;;;;;;;;5009025;28;20025;-76
2022/08/03 03:46:04;;;;;;;4.13;1.33;;;;;;;;;;5009064;28;20022;-77
2022/08/03 03:48:29;;;;;;;2.70;1.50;;;;;;;;;;5009127;28;20057;-77
2022/08/03 03:50:56;;;;;;;5.68;1.58;;;;;;;;;;5008837;28;20033;-77
2022/08/03 03:53:22;;;;;;;4.95;1.30;;;;;;;;;;5008980;28;20025;-75
2022/08/03 03:55:47;;;;;;;2.30;1.30;;;;;;;;;;5008958;28;20109;-77
2022/08/03 03:58:13;;;;;;;3.10;1.30;;;;;;;;;;5007729;28;20026;-77
2022/08/03 04:00:38;;;;;;;2.15;1.30;;;;;;;;;;5008871;28;20384;-77
2022/08/03 04:03:04;;;;;;;3.50;1.25;;;;;;;;;;5008620;28;20022;-79
2022/08/03 04:11:32;;;;;;;5.22;1.30;;;;;;;;;;5008774;28;20053;-78
2022/08/03 04:14:19;;;;;;;2.63;1.33;;;;;;;;;;5030497;28;20057;-79
2022/08/03 04:16:57;;;;;;;2.85;1.20;;;;;;;;;;5007954;28;20116;-79
2022/08/03 04:19:36;;;;;;;5.07;1.45;;;;;;;;;;5008635;28;20026;-79
2022/08/03 04:22:08;;;;;;;4.70;1.38;;;;;;;;;;5008200;28;20034;-79
2022/08/03 04:24:39;;;;;;;2.25;1.35;;;;;;;;;;5008388;28;20401;-79
2022/08/03 04:27:08;;;;;;;3.38;1.38;;;;;;;;;;5008574;28;20022;-79
2022/08/03 04:29:36;;;;;;;4.78;1.50;;;;;;;;;;5008475;28;20079;-79
2022/08/03 04:32:05;;;;;;;3.63;1.30;;;;;;;;;;5008351;28;20026;-78
2022/08/03 04:34:31;;;;;;;1.90;1.13;;;;;;;;;;5008536;28;20029;-79
2022/08/03 04:36:59;;;;;;;6.63;1.40;;;;;;;;;;5008295;28;20030;-79
2022/08/03 04:39:27;;;;;;;3.88;1.40;;;;;;;;;;5008299;28;20022;-79
2022/08/03 04:41:58;;;;;;;2.53;1.42;;;;;;;;;;5007983;28;20075;-79
2022/08/03 04:44:27;;;;;;;2.60;1.40;;;;;;;;;;5008151;28;20090;-79
2022/08/03 04:46:53;;;;;;;4.68;1.45;;;;;;;;;;5008228;28;20509;-78
2022/08/03 04:49:20;;;;;;;3.70;1.40;;;;;;;;;;5008395;28;20041;-77
2022/08/03 04:51:47;;;;;;;5.05;1.40;;;;;;;;;;5007977;28;20549;-76
2022/08/03 04:54:17;;;;;;;2.40;1.40;;;;;;;;;;5008093;28;20022;-77
2022/08/03 04:56:43;;;;;;;6.15;1.42;;;;;;;;;;5007801;28;20034;-77
2022/08/03 04:59:09;;;;;;;3.25;1.50;;;;;;;;;;5007891;28;20102;-77
2022/08/03 05:01:34;;;;;;;3.50;1.50;;;;;;;;;;5007888;28;20033;-79
2022/08/03 05:04:00;;;;;;;9.35;1.70;;;;;;;;;;5007976;28;20050;-78
2022/08/03 05:06:27;;;;;;;3.15;1.45;;;;;;;;;;5008167;28;20047;-78
2022/08/03 05:08:52;;;;;;;5.97;1.40;;;;;;;;;;5007965;28;20108;-77
2022/08/03 05:11:18;;;;;;;6.93;1.63;;;;;;;;;;5007865;28;20158;-76
2022/08/03 05:13:44;;;;;;;5.00;1.60;;;;;;;;;;5007781;28;20508;-76
2022/08/03 05:16:10;;;;;;;2.38;1.30;;;;;;;;;;5007788;28;20462;-75
2022/08/03 05:18:36;;;;;;;2.80;1.50;;;;;;;;;;5007618;28;20026;-76
2022/08/03 05:21:02;;;;;;;3.33;1.40;;;;;;;;;;5007480;28;20029;-76
2022/08/03 05:23:27;;;;;;;4.15;1.42;;;;;;;;;;5007596;28;20139;-77
2022/08/03 05:25:53;;;;;;;7.88;1.70;;;;;;;;;;5007835;28;20106;-76
2022/08/03 05:28:18;;;;;;;3.60;1.42;;;;;;;;;;5007681;28;20018;-77
2022/08/03 05:30:44;;;;;;;2.30;1.30;;;;;;;;;;5007402;28;20026;-78
2022/08/03 05:33:09;;;;;;;3.05;1.42;;;;;;;;;;5007373;28;20073;-77
2022/08/03 05:35:37;;;;;;;3.80;1.40;;;;;;;;;;5007456;28;20022;-76
2022/08/03 05:38:03;;;;;;;5.18;1.75;;;;;;;;;;5007638;28;20080;-77
2022/08/03 05:40:29;;;;;;;6.65;1.27;;;;;;;;;;5007395;28;20432;-75
2022/08/03 05:42:54;;;;;;;3.83;1.48;;;;;;;;;;5007339;28;20035;-77
2022/08/03 05:45:20;;;;;;;6.20;1.50;;;;;;;;;;5007421;28;20037;-76
2022/08/03 05:47:45;;;;;;;2.85;1.60;;;;;;;;;;5007277;28;20030;-77
2022/08/03 05:50:12;;;;;;;5.15;1.40;;;;;;;;;;5007305;28;20029;-77
2022/08/03 05:52:39;;;;;;;2.85;1.33;;;;;;;;;;5006685;28;20477;-76
2022/08/03 05:55:09;;;;;;;4.85;1.70;;;;;;;;;;5007253;28;20030;-78
2022/08/03 05:57:35;;;;;;;5.40;1.43;;;;;;;;;;5007276;28;20042;-77
2022/08/03 06:00:03;;;;;;;3.55;1.60;;;;;;;;;;5007447;28;20030;-76
2022/08/03 06:02:29;;;;;;;6.65;1.63;;;;;;;;;;5006463;28;20105;-77
2022/08/03 06:04:55;;;;;;;5.75;1.48;;;;;;;;;;5006932;28;20130;-75
2022/08/03 06:07:20;;;;;;;5.35;1.67;;;;;;;;;;5006832;28;20444;-76
2022/08/03 06:09:46;;;;;;;4.78;1.60;;;;;;;;;;5007081;28;20038;-77
2022/08/03 06:12:11;;;;;;;3.58;1.50;;;;;;;;;;5006971;28;20029;-75
2022/08/03 06:14:36;;;;;;;3.03;1.48;;;;;;;;;;5007081;28;20076;-75
2022/08/03 06:17:02;;;;;;;4.57;1.60;;;;;;;;;;5007094;28;20048;-76
2022/08/03 06:19:27;;;;;;;9.77;1.73;;;;;;;;;;5007115;28;20049;-76
2022/08/03 06:21:53;;;;;;;6.57;1.67;;;;;;;;;;5006549;28;20033;-75
2022/08/03 06:24:18;;;;;;;10.65;1.70;;;;;;;;;;5006930;28;20082;-75
2022/08/03 06:26:43;;;;;;;6.57;2.08;;;;;;;;;;5006843;28;20026;-76
2022/08/03 06:29:09;;;;;;;10.10;1.60;;;;;;;;;;5006955;28;20063;-75
2022/08/03 06:31:34;;;;;;;14.77;2.28;;;;;;;;;;5006724;28;20030;-76
2022/08/03 06:34:04;;;;;;;6.45;1.83;;;;;;;;;;5006898;28;20026;-75
2022/08/03 06:36:30;;;;;;;10.68;1.73;;;;;;;;;;5006600;28;20042;-77
2022/08/03 06:38:58;;;;;;;11.00;1.60;;;;;;;;;;5006789;28;20037;-77
2022/08/03 06:41:25;;;;;;;13.77;2.22;;;;;;;;;;5008283;28;20382;-77
2022/08/03 06:43:50;;;;;;;9.52;1.80;;;;;;;;;;5009970;28;20022;-75
2022/08/03 06:46:16;;;;;;;6.13;1.90;;;;;;;;;;5009916;28;20026;-75
2022/08/03 06:48:41;;;;;;;6.72;1.70;;;;;;;;;;5010072;28;20108;-74
2022/08/03 06:51:07;;;;;;;11.80;2.00;;;;;;;;;;5009829;28;20110;-75
2022/08/03 06:53:32;;;;;;;5.00;1.75;;;;;;;;;;5008725;28;20026;-76
2022/08/03 06:55:58;;;;;;;4.13;1.98;;;;;;;;;;5009609;28;20692;-74
2022/08/03 06:58:23;;;;;;;7.50;1.70;;;;;;;;;;5009783;28;20028;-75
2022/08/03 07:00:49;;;;;;;10.77;1.83;;;;;;;;;;5009674;28;20094;-75
2022/08/03 07:03:14;;;;;;;6.30;1.70;;;;;;;;;;5009457;28;20030;-74
2022/08/03 07:05:41;;;;;;;7.00;1.80;;;;;;;;;;5009738;28;20420;-75
2022/08/03 07:08:06;;;;;;;7.70;2.03;;;;;;;;;;5009738;28;20389;-74
2022/08/03 07:10:33;;;;;;;4.47;1.95;;;;;;;;;;5009871;28;20049;-76
2022/08/03 07:12:58;;;;;;;6.55;2.00;;;;;;;;;;5009466;28;20026;-75
2022/08/03 07:15:24;;;;;;;5.82;1.90;;;;;;;;;;5009484;28;20082;-75
2022/08/03 07:17:50;;;;;;;7.82;1.90;;;;;;;;;;5009409;28;20375;-75
2022/08/03 07:20:17;;;;;;;5.32;1.83;;;;;;;;;;5009463;28;20508;-74
2022/08/03 07:22:43;;;;;;;7.53;2.15;;;;;;;;;;5009160;28;20025;-74
2022/08/03 07:25:09;;;;;;;4.22;1.60;;;;;;;;;;5009665;28;20038;-74
2022/08/03 07:27:34;;;;;;;4.57;1.70;;;;;;;;;;5009778;28;20034;-76
2022/08/03 07:30:00;;;;;;;7.78;1.98;;;;;;;;;;5009541;28;20036;-75
2022/08/03 07:32:27;;;;;;;6.13;2.00;;;;;;;;;;5008866;28;20030;-75
2022/08/03 07:34:52;;;;;;;23.60;2.42;;;;;;;;;;5009234;28;20034;-76
2022/08/03 07:37:18;;;;;;;12.63;1.95;;;;;;;;;;5008955;28;20059;-76
2022/08/03 07:39:43;;;;;;;6.85;2.00;;;;;;;;;;5009499;28;20030;-75
2022/08/03 07:42:09;;;;;;;12.63;2.20;;;;;;;;;;5009166;28;20026;-75
2022/08/03 07:44:34;;;;;;;17.65;1.98;;;;;;;;;;5009110;28;20036;-76
2022/08/03 07:47:00;;;;;;;4.93;1.80;;;;;;;;;;5009402;28;20026;-77
2022/08/03 07:49:25;;;;;;;6.15;2.13;;;;;;;;;;5009109;28;20028;-75
2022/08/03 07:52:46;;;;;;;10.75;1.80;;;;;;;;;;5007644;28;20075;-75
2022/08/03 07:54:36;;;;;;;12.70;2.42;;;;;;;;;;5008674;28;20029;-75
2022/08/03 07:57:01;;;;;;;17.20;2.50;;;;;;;;;;5008882;28;20034;-75
2022/08/03 07:59:27;;;;;;;14.05;2.28;;;;;;;;;;5008994;28;20022;-75
2022/08/03 08:01:52;;;;;;;10.13;2.20;;;;;;;;;;5008826;28;20109;-76
2022/08/03 08:04:18;;;;;;;10.65;2.28;;;;;;;;;;5008771;28;20046;-75
2022/08/03 08:06:44;;;;;;;10.00;2.22;;;;;;;;;;5008604;28;20394;-75
2022/08/03 08:09:10;;;;;;;7.28;2.20;;;;;;;;;;5008599;28;20113;-75
2022/08/03 08:11:36;;;;;;;7.28;2.30;;;;;;;;;;5007285;28;20034;-75
2022/08/03 08:14:02;;;;;;;6.90;2.20;;;;;;;;;;5008548;28;20033;-75
2022/08/03 08:16:28;;;;;;;7.85;2.33;;;;;;;;;;5008625;28;20034;-77
2022/08/03 08:18:53;;;;;;;6.65;2.05;;;;;;;;;;5008868;28;20041;-76
2022/08/03 08:21:19;;;;;;;6.95;2.08;;;;;;;;;;5008546;28;20034;-77
2022/08/03 08:23:44;;;;;;;6.65;2.13;;;;;;;;;;5008498;28;20151;-77
2022/08/03 08:26:10;;;;;;;6.18;2.08;;;;;;;;;;5008465;28;20075;-75
2022/08/03 08:28:36;;;;;;;6.75;2.40;;;;;;;;;;5008426;28;20054;-77
2022/08/03 08:31:01;;;;;;;11.38;2.20;;;;;;;;;;5008392;28;20061;-78
2022/08/03 08:33:27;;;;;;;6.28;2.30;;;;;;;;;;5008227;28;20026;-78
2022/08/03 08:35:52;;;;;;;5.90;2.00;;;;;;;;;;5008390;28;20030;-78
2022/08/03 08:38:18;;;;;;;6.72;2.15;;;;;;;;;;5008404;28;20030;-78
2022/08/03 08:40:43;;;;;;;6.38;2.08;;;;;;;;;;5008299;28;20033;-78
2022/08/03 08:43:09;;;;;;;5.03;1.98;;;;;;;;;;5008230;28;20113;-78
2022/08/03 08:45:34;;;;;;;8.27;2.13;;;;;;;;;;5007970;28;20069;-78
2022/08/03 08:48:02;;;;;;;4.55;2.10;;;;;;;;;;5008754;28;20054;-78
2022/08/03 08:50:28;;;;;;;3.90;2.20;;;;;;;;;;5008275;28;20478;-77
2022/08/03 08:52:55;;;;;;;11.32;2.40;;;;;;;;;;5008004;28;20030;-76
2022/08/03 08:55:22;;;;;;;19.73;2.42;;;;;;;;;;5008233;28;20022;-78
2022/08/03 08:58:03;;;;;;;12.05;2.33;;;;;;;;;;5008364;28;20030;-77
2022/08/03 09:00:29;;;;;;;10.93;2.53;;;;;;;;;;5008076;28;20042;-76
2022/08/03 09:02:55;;;;;;;12.93;2.67;;;;;;;;;;5007280;28;20034;-76
2022/08/03 09:05:21;;;;;;;5.82;2.10;;;;;;;;;;5007641;28;20128;-77
2022/08/03 09:07:47;;;;;;;7.75;2.10;;;;;;;;;;5007685;28;20071;-78
2022/08/03 09:10:17;;;;;;;6.13;2.10;;;;;;;;;;5007869;28;20037;-79
2022/08/03 09:12:44;;;;;;;;;;;;;;;;;;5008218;28;20022;-77
2022/08/03 09:15:39;;;;;;;13.68;2.40;;;;;;;;;;5008003;28;19952;-78
2022/08/03 09:18:04;;;;;;;8.52;2.33;;;;;;;;;;5016156;28;20034;-77
2022/08/03 09:20:33;;;;;;;9.88;2.50;;;;;;;;;;5007583;28;20029;-78
2022/08/03 09:23:04;;;;;;;5.38;2.00;;;;;;;;;;5007587;28;20682;-79
2022/08/03 09:25:34;;;;;;;9.32;2.03;;;;;;;;;;5007681;28;20048;-79
2022/08/03 09:28:07;;;;;;;7.93;2.20;;;;;;;;;;5007793;28;20053;-78
2022/08/03 09:30:33;;;;;;;5.65;2.20;;;;;;;;;;5007687;28;20105;-78
2022/08/03 09:33:03;;;;;;;7.55;2.17;;;;;;;;;;5007669;28;20118;-79
2022/08/03 09:35:29;;;;;;;6.65;2.30;;;;;;;;;;5007492;28;20109;-77
2022/08/03 09:38:25;;;;;;;8.20;2.05;;;;;;;;;;5007298;28;20141;-77
2022/08/03 09:40:51;;;;;;;3.95;2.10;;;;;;;;;;5007393;28;20485;-76
2022/08/03 09:43:17;;;;;;;6.75;2.10;;;;;;;;;;5007313;28;20536;-78
2022/08/03 09:45:43;;;;;;;6.78;2.10;;;;;;;;;;5007438;28;20034;-77
2022/08/03 09:48:24;;;;;;;5.82;2.22;;;;;;;;;;5007448;28;20022;-78
2022/08/03 09:51:00;;;;;;;5.80;2.10;;;;;;;;;;5006169;28;20026;-77
2022/08/03 09:53:26;;;;;;;5.68;1.90;;;;;;;;;;5007119;28;20110;-76
2022/08/03 09:55:58;;;;;;;4.55;2.05;;;;;;;;;;5007168;28;20061;-77
2022/08/03 09:58:25;;;;;;;3.38;1.90;;;;;;;;;;5007209;28;20037;-78
2022/08/03 10:00:52;;;;;;;6.03;2.10;;;;;;;;;;5007348;28;20106;-77
2022/08/03 10:03:18;;;;;;;4.18;1.80;;;;;;;;;;5006887;28;20022;-78
2022/08/03 10:05:44;;;;;;;4.32;1.90;;;;;;;;;;5007326;28;20041;-78
2022/08/03 10:08:17;;;;;;;7.40;1.98;;;;;;;;;;5007082;28;20095;-79
2022/08/03 10:10:44;;;;;;;8.98;2.05;;;;;;;;;;5007433;28;20033;-77
2022/08/03 10:13:13;;;;;;;3.92;1.88;;;;;;;;;;5006804;28;20036;-78
2022/08/03 10:15:39;;;;;;;4.37;1.63;;;;;;;;;;5008909;28;20031;-77
2022/08/03 10:18:06;;;;;;;4.03;1.88;;;;;;;;;;5010545;28;20646;-77
2022/08/03 10:20:36;;;;;;;5.90;1.70;;;;;;;;;;5010559;28;20087;-76
2022/08/03 10:23:03;;;;;;;3.55;1.70;;;;;;;;;;5010193;28;20026;-77
2022/08/03 10:25:31;;;;;;;4.25;1.77;;;;;;;;;;5010543;28;20026;-76
2022/08/03 10:27:58;;;;;;;5.55;2.00;;;;;;;;;;5010294;28;20038;-75
2022/08/03 10:30:27;;;;;;;5.50;1.75;;;;;;;;;;5010271;28;20037;-75
2022/08/03 10:33:13;;;;;;;2.55;1.70;;;;;;;;;;5010287;28;20026;-75
2022/08/03 10:35:40;;;;;;;2.58;1.52;;;;;;;;;;5010146;28;20030;-76
2022/08/03 10:38:11;;;;;;;4.38;1.80;;;;;;;;;;5010227;28;20592;-75
2022/08/03 10:40:37;;;;;;;4.35;1.70;;;;;;;;;;5010286;28;20664;-76
2022/08/03 10:43:08;;;;;;;5.55;1.90;;;;;;;;;;5010054;28;20694;-76
2022/08/03 10:45:38;;;;;;;3.42;1.60;;;;;;;;;;5009861;28;20048;-75
2022/08/03 10:48:04;;;;;;;3.95;1.70;;;;;;;;;;5009913;28;20108;-77
2022/08/03 10:50:29;;;;;;;6.35;1.73;;;;;;;;;;5009889;28;20194;-78
2022/08/03 10:53:06;;;;;;;3.03;1.88;;;;;;;;;;5009888;28;20685;-78
2022/08/03 10:58:39;;;;;;;7.32;3.83;;;;;;;;;;5010392;28;20459;-77
2022/08/03 11:01:09;;;;;;;7.63;2.13;;;;;;;;;;5009845;28;20022;-76
2022/08/03 11:03:53;;;;;;;;;;;;;;;;;;5008575;28;20089;-77
2022/08/03 11:06:19;;;;;;;7.43;2.10;;;;;;;;;;5009669;28;19970;-76
2022/08/03 11:08:46;;;;;;;6.07;2.17;;;;;;;;;;5009591;28;20107;-77
2022/08/03 11:11:17;;;;;;;4.07;1.80;;;;;;;;;;5009642;28;20030;-78
2022/08/03 11:14:06;;;;;;;5.88;1.70;;;;;;;;;;5009546;28;20105;-77
2022/08/03 11:16:38;;;;;;;2.70;1.73;;;;;;;;;;5009697;28;20037;-78
2022/08/03 11:19:08;;;;;;;8.43;2.00;;;;;;;;;;5009728;28;20500;-77
2022/08/03 11:24:35;;;;;;;5.20;2.08;;;;;;;;;;5009254;28;19917;-77
2022/08/03 11:27:16;;;;;;;7.88;2.10;;;;;;;;;;5009324;28;20022;-77
2022/08/03 11:30:21;;;;;;;4.35;1.92;;;;;;;;;;5009508;28;20026;-76
2022/08/03 11:32:47;;;;;;;4.53;1.80;;;;;;;;;;5008230;28;20090;-76
2022/08/03 11:35:20;;;;;;;8.02;2.47;;;;;;;;;;5009188;28;20436;-76
2022/08/03 11:37:55;;;;;;;4.53;1.92;;;;;;;;;;5009288;28;20033;-77
2022/08/03 11:40:39;;;;;;;8.82;2.00;;;;;;;;;;5007801;28;20030;-77
2022/08/03 11:43:33;;;;;;;5.35;1.90;;;;;;;;;;5009028;28;20033;-76
2022/08/03 11:46:20;;;;;;;3.38;1.70;;;;;;;;;;5013323;28;20041;-77
2022/08/03 11:48:48;;;;;;;4.18;1.92;;;;;;;;;;5009567;28;20053;-77
2022/08/03 11:51:23;;;;;;;6.78;1.90;;;;;;;;;;5009030;28;20493;-77
2022/08/03 11:54:07;;;;;;;8.75;2.17;;;;;;;;;;5009109;28;20021;-77
2022/08/03 11:56:48;;;;;;;6.45;2.00;;;;;;;;;;5008841;28;20034;-75
2022/08/03 11:59:13;;;;;;;4.47;1.90;;;;;;;;;;5008837;28;20066;-76
2022/08/03 12:01:39;;;;;;;4.10;1.60;;;;;;;;;;5008885;28;20476;-75
2022/08/03 12:04:05;;;;;;;4.90;2.00;;;;;;;;;;5008673;28;20143;-75
2022/08/03 12:06:53;;;;;;;5.32;1.95;;;;;;;;;;5008871;28;20059;-76
2022/08/03 12:09:16;;;;;;;4.15;1.70;;;;;;;;;;5008747;28;20109;-75
2022/08/03 12:11:41;;;;;;;4.43;1.98;;;;;;;;;;5008770;28;20606;-75
2022/08/03 12:14:07;;;;;;;6.55;2.13;;;;;;;;;;5008571;28;20029;-76
2022/08/03 12:16:32;;;;;;;5.50;1.80;;;;;;;;;;5008574;28;20057;-75
2022/08/03 12:19:01;;;;;;;4.07;1.70;;;;;;;;;;5008689;28;20021;-75
2022/08/03 12:21:27;;;;;;;2.78;1.70;;;;;;;;;;5008588;28;20482;-75
2022/08/03 12:23:58;;;;;;;3.20;1.90;;;;;;;;;;5008751;28;20025;-75
2022/08/03 12:26:24;;;;;;;3.13;1.80;;;;;;;;;;5008666;28;20053;-75
2022/08/03 12:28:50;;;;;;;2.45;1.80;;;;;;;;;;5008593;28;20026;-76
2022/08/03 12:31:16;;;;;;;4.15;1.80;;;;;;;;;;5008324;28;20033;-76
2022/08/03 12:34:03;;;;;;;3.22;1.70;;;;;;;;;;5008240;28;20041;-77
2022/08/03 12:36:31;;;;;;;2.85;1.73;;;;;;;;;;5008126;28;20040;-76
2022/08/03 12:39:03;;;;;;;5.60;1.60;;;;;;;;;;5007752;28;20628;-77
2022/08/03 12:41:39;;;;;;;3.28;1.90;;;;;;;;;;5008406;28;20022;-76
2022/08/03 12:44:08;;;;;;;4.35;1.80;;;;;;;;;;5008145;28;20025;-76
2022/08/03 12:46:40;;;;;;;5.53;1.95;;;;;;;;;;5008133;28;20029;-76
2022/08/03 12:49:17;;;;;;;5.55;2.05;;;;;;;;;;5008234;28;20022;-78
2022/08/03 12:51:43;;;;;;;3.15;1.92;;;;;;;;;;5007822;28;20029;-79
2022/08/03 12:54:14;;;;;;;6.50;2.05;;;;;;;;;;5007882;28;20026;-79
2022/08/03 12:57:09;;;;;;;5.03;1.90;;;;;;;;;;5008045;28;20030;-78
2022/08/03 12:59:44;;;;;;;7.40;2.00;;;;;;;;;;5008074;28;20049;-78
2022/08/03 13:02:16;;;;;;;7.55;2.00;;;;;;;;;;5008238;28;20398;-79
2022/08/03 13:04:42;;;;;;;5.15;2.20;;;;;;;;;;5007709;28;20045;-77
2022/08/03 13:07:09;;;;;;;6.43;2.25;;;;;;;;;;5006528;28;20117;-76
2022/08/03 13:09:45;;;;;;;4.57;1.90;;;;;;;;;;5006513;28;20058;-77
2022/08/03 13:12:16;;;;;;;5.40;1.90;;;;;;;;;;5008066;28;20104;-78
2022/08/03 13:14:44;;;;;;;6.95;1.80;;;;;;;;;;5007985;28;20060;-76
2022/08/03 13:17:11;;;;;;;5.18;1.80;;;;;;;;;;5007849;28;20382;-79
2022/08/03 13:19:38;;;;;;;5.07;1.80;;;;;;;;;;5008169;28;20026;-78
2022/08/03 13:22:17;;;;;;;7.00;1.70;;;;;;;;;;5007646;28;20036;-78
2022/08/03 13:24:44;;;;;;;2.65;1.60;;;;;;;;;;5007444;28;20136;-78
2022/08/03 13:27:10;;;;;;;7.38;1.95;;;;;;;;;;5007668;28;20421;-79
2022/08/03 13:29:36;;;;;;;4.75;2.10;;;;;;;;;;5007607;28;20026;-79
2022/08/03 13:32:03;;;;;;;2.85;2.05;;;;;;;;;;5007800;28;20410;-79
2022/08/03 13:34:28;;;;;;;2.85;2.03;;;;;;;;;;5007431;28;20026;-78
2022/08/03 13:36:54;;;;;;;3.92;2.00;;;;;;;;;;5007338;28;20033;-78
2022/08/03 13:39:20;;;;;;;3.72;2.10;;;;;;;;;;5007353;28;20389;-78
2022/08/03 13:41:46;;;;;;;4.28;2.38;;;;;;;;;;5007356;28;20108;-78
2022/08/03 13:44:12;;;;;;;4.97;2.40;;;;;;;;;;5007175;28;20106;-78
2022/08/03 13:46:38;;;;;;;4.43;2.20;;;;;;;;;;5007162;28;20115;-78
2022/08/03 13:49:05;;;;;;;3.97;2.15;;;;;;;;;;5007489;28;20088;-78
2022/08/03 13:51:30;;;;;;;3.55;2.22;;;;;;;;;;5010693;28;20150;-78
2022/08/03 13:53:58;;;;;;;6.25;2.00;;;;;;;;;;5010794;28;20109;-77
2022/08/03 13:56:24;;;;;;;3.40;2.30;;;;;;;;;;5010743;28;20648;-77
2022/08/03 13:58:49;;;;;;;4.30;2.30;;;;;;;;;;5010685;28;20026;-78
2022/08/03 14:01:15;;;;;;;6.85;2.08;;;;;;;;;;5010680;28;20154;-77
2022/08/03 14:03:40;;;;;;;4.80;2.10;;;;;;;;;;5010541;28;20052;-77
2022/08/03 14:06:06;;;;;;;4.38;2.13;;;;;;;;;;5010535;28;20037;-78
2022/08/03 14:08:31;;;;;;;4.38;2.20;;;;;;;;;;5010694;28;20476;-77
2022/08/03 14:10:57;;;;;;;4.00;2.30;;;;;;;;;;5009459;28;20508;-78
2022/08/03 14:13:23;;;;;;;2.60;2.00;;;;;;;;;;5010633;28;20069;-78
2022/08/03 14:15:50;;;;;;;10.10;2.25;;;;;;;;;;5010236;28;20034;-78
2022/08/03 14:18:18;;;;;;;5.18;2.10;;;;;;;;;;5010511;28;20033;-77
2022/08/03 14:20:43;;;;;;;5.35;2.25;;;;;;;;;;5010280;28;20481;-76
2022/08/03 14:23:09;;;;;;;3.05;1.90;;;;;;;;;;5010269;28;20028;-77
2022/08/03 14:25:35;;;;;;;4.25;2.00;;;;;;;;;;5010272;28;20036;-75
2022/08/03 14:28:00;;;;;;;3.15;2.00;;;;;;;;;;5010553;28;20025;-77
2022/08/03 14:30:25;;;;;;;4.50;1.90;;;;;;;;;;5010363;28;20124;-78
2022/08/03 14:32:51;;;;;;;3.60;2.10;;;;;;;;;;5010305;28;20037;-78
2022/08/03 14:35:16;;;;;;;3.63;1.88;;;;;;;;;;5010035;28;20026;-77
2022/08/03 14:37:42;;;;;;;5.07;1.98;;;;;;;;;;5010049;28;20034;-79
2022/08/03 14:40:07;;;;;;;4.97;1.85;;;;;;;;;;5010133;28;20030;-78
2022/08/03 14:42:33;;;;;;;2.95;1.83;;;;;;;;;;5010120;28;20079;-77
2022/08/03 14:44:58;;;;;;;6.00;2.03;;;;;;;;;;5010128;28;20034;-77
2022/08/03 14:47:24;;;;;;;2.17;1.83;;;;;;;;;;5010115;28;20068;-78
2022/08/03 14:49:49;;;;;;;3.75;1.80;;;;;;;;;;5010049;28;20037;-77
2022/08/03 14:52:15;;;;;;;3.10;1.92;;;;;;;;;;5009798;28;20034;-78
2022/08/03 14:54:40;;;;;;;3.63;2.00;;;;;;;;;;5009743;28;20492;-79
2022/08/03 14:57:05;;;;;;;4.50;1.67;;;;;;;;;;5009855;28;20454;-78
2022/08/03 14:59:31;;;;;;;3.15;2.00;;;;;;;;;;5008494;28;20057;-79
2022/08/03 15:01:57;;;;;;;3.38;1.80;;;;;;;;;;5009381;28;20603;-79